createdAt,value
2023-12-22T06:18:38.015Z,100.00
2023-12-22T06:21:40.142Z,100.00
2023-12-22T06:24:41.840Z,100.00
2023-12-22T06:27:43.498Z,100.00
2023-12-22T06:30:45.462Z,100.00
2023-12-22T06:33:51.961Z,100.00
2023-12-22T06:36:53.743Z,100.00
2023-12-22T06:39:55.396Z,100.00
2023-12-22T06:42:57.019Z,100.00
2023-12-22T06:45:59.574Z,100.00
2023-12-22T06:49:03.656Z,100.00
2023-12-22T06:52:06.947Z,100.00
2023-12-22T06:55:08.840Z,100.00
2023-12-22T06:58:10.479Z,100.00
2023-12-22T07:01:12.196Z,100.00
2023-12-22T07:04:13.864Z,100.00
2023-12-22T07:07:15.495Z,100.00
2023-12-22T07:10:17.382Z,100.00
2023-12-22T07:13:19.247Z,100.00
2023-12-22T07:16:20.969Z,100.00
2023-12-22T07:19:23.696Z,100.00
2023-12-22T07:22:25.552Z,100.00
2023-12-22T07:25:27.361Z,100.00
2023-12-22T07:28:29.028Z,100.00
2023-12-22T07:31:30.972Z,100.00
2023-12-22T07:34:34.074Z,100.00
2023-12-22T07:37:38.539Z,100.00
2023-12-22T07:40:41.002Z,100.00
2023-12-22T07:43:43.401Z,100.00
2023-12-22T07:46:45.228Z,100.00
2023-12-22T07:49:48.031Z,100.00
2023-12-22T07:52:51.343Z,100.00
2023-12-22T07:55:53.437Z,100.00
2023-12-22T07:59:02.149Z,100.00
2023-12-22T08:02:10.611Z,100.00
2023-12-22T08:05:12.747Z,94.64
2023-12-22T08:08:14.389Z,83.15
2023-12-22T08:11:16.027Z,79.87
2023-12-22T08:14:17.671Z,78.92
2023-12-22T08:17:19.329Z,72.19
2023-12-22T08:20:26.615Z,58.31
2023-12-22T08:23:32.358Z,52.17
2023-12-22T08:26:34.273Z,48.77
2023-12-22T08:29:36.233Z,50.75
2023-12-22T08:32:38.119Z,45.49
2023-12-22T08:35:39.780Z,47.48
2023-12-22T08:38:42.262Z,46.06
2023-12-22T08:41:44.731Z,43.59
2023-12-22T08:44:46.633Z,41.19
2023-12-22T08:47:49.041Z,38.37
2023-12-22T08:50:51.279Z,36.60
2023-12-22T08:53:55.843Z,35.00
2023-12-22T08:56:57.712Z,32.90
2023-12-22T08:59:59.375Z,32.27
2023-12-22T09:03:01.114Z,31.35
2023-12-22T09:06:03.138Z,30.63
2023-12-22T09:09:05.277Z,29.55
2023-12-22T09:12:07.213Z,28.35
2023-12-22T09:15:09.043Z,28.51
2023-12-22T09:18:10.759Z,28.40
2023-12-22T09:21:12.445Z,30.33
2023-12-22T09:24:14.233Z,34.31
2023-12-22T09:27:15.863Z,35.46
2023-12-22T09:30:17.541Z,36.47
2023-12-22T09:33:20.128Z,39.49
2023-12-22T09:36:22.361Z,42.13
2023-12-22T09:39:24.036Z,40.03
2023-12-22T09:42:26.636Z,36.20
2023-12-22T09:45:29.182Z,41.92
2023-12-22T09:48:32.656Z,45.23
2023-12-22T09:51:35.465Z,47.69
2023-12-22T09:54:38.600Z,48.59
2023-12-22T09:57:41.134Z,49.31
2023-12-22T10:00:43.585Z,50.63
2023-12-22T10:03:48.252Z,51.17
2023-12-22T10:06:51.474Z,50.79
2023-12-22T10:09:55.037Z,42.26
2023-12-22T10:12:57.713Z,36.19
2023-12-22T10:16:00.380Z,35.13
2023-12-22T10:19:02.954Z,32.79
2023-12-22T10:22:04.772Z,37.07
2023-12-22T10:25:08.262Z,36.95
2023-12-22T10:28:14.364Z,40.63
2023-12-22T10:31:19.321Z,44.13
2023-12-22T10:34:21.033Z,48.28
2023-12-22T10:37:24.046Z,49.81
2023-12-22T10:40:26.523Z,49.69
2023-12-22T10:43:28.657Z,51.45
2023-12-22T10:46:34.956Z,49.91
2023-12-22T10:49:37.912Z,51.21
2023-12-22T10:52:39.592Z,68.42
2023-12-22T10:55:41.334Z,91.61
2023-12-22T10:58:43.883Z,100.00
2023-12-22T11:01:49.516Z,100.00
2023-12-22T11:05:10.375Z,100.00
2023-12-22T11:08:13.322Z,96.36
2023-12-22T11:11:21.986Z,94.58
2023-12-22T11:14:25.075Z,87.00
2023-12-22T11:17:29.460Z,86.29
2023-12-22T11:20:33.645Z,83.13
2023-12-22T11:23:37.168Z,78.99
2023-12-22T11:26:42.166Z,76.81
2023-12-22T11:29:44.312Z,78.74
2023-12-22T11:32:47.174Z,75.05
2023-12-22T11:35:51.391Z,76.61
2023-12-22T11:38:53.295Z,72.33
2023-12-22T11:41:56.540Z,65.82
2023-12-22T11:44:58.851Z,64.33
2023-12-22T11:48:11.447Z,60.16
2023-12-22T11:51:15.467Z,58.68
2023-12-22T11:54:49.277Z,58.54
2023-12-22T11:57:51.275Z,60.15
2023-12-22T12:00:54.291Z,63.30
2023-12-22T12:04:03.290Z,62.40
2023-12-22T12:07:46.654Z,63.70
2023-12-22T12:10:55.477Z,66.88
2023-12-22T12:14:12.911Z,64.12
2023-12-22T12:17:19.250Z,61.59
2023-12-22T12:20:22.956Z,62.34
2023-12-22T12:23:25.739Z,68.64
2023-12-22T12:26:29.693Z,66.35
2023-12-22T12:29:34.249Z,66.17
2023-12-22T12:32:36.515Z,65.51
2023-12-22T12:35:47.412Z,67.41
2023-12-22T12:39:08.599Z,65.59
2023-12-22T12:42:16.089Z,66.61
2023-12-22T12:45:23.437Z,70.04
2023-12-22T12:48:25.476Z,72.92
2023-12-22T12:51:27.252Z,73.75
2023-12-22T12:54:29.117Z,73.79
2023-12-22T12:57:30.962Z,68.02
2023-12-22T13:00:36.994Z,69.32
2023-12-22T13:03:55.778Z,66.68
2023-12-22T13:07:00.393Z,67.41
2023-12-22T13:10:02.151Z,67.62
2023-12-22T13:13:04.312Z,66.97
2023-12-22T13:16:06.373Z,65.44
2023-12-22T13:19:08.588Z,62.29
2023-12-22T13:22:11.166Z,64.39
2023-12-22T13:25:13.173Z,65.92
2023-12-22T13:28:14.886Z,68.69
2023-12-22T13:31:19.400Z,70.85
2023-12-22T13:34:21.199Z,74.79
2023-12-22T13:37:25.451Z,77.16
2023-12-22T13:40:27.322Z,80.33
2023-12-22T13:43:30.689Z,100.00
2023-12-22T13:46:33.466Z,100.00
2023-12-22T13:49:35.573Z,100.00
2023-12-22T13:52:37.393Z,100.00
2023-12-22T13:55:40.631Z,100.00
2023-12-22T13:58:49.344Z,100.00
2023-12-22T14:01:51.080Z,100.00
2023-12-22T14:04:53.528Z,100.00
2023-12-22T14:07:55.742Z,100.00
2023-12-22T14:10:57.983Z,100.00
2023-12-22T14:13:59.662Z,100.00
2023-12-22T14:17:01.453Z,100.00
2023-12-22T14:20:03.659Z,100.00
2023-12-22T14:23:05.571Z,100.00
2023-12-22T14:26:07.398Z,100.00
2023-12-22T14:29:10.204Z,100.00
2023-12-22T14:32:15.975Z,100.00
2023-12-22T14:35:17.664Z,100.00
2023-12-22T14:38:19.454Z,100.00
2023-12-22T14:41:21.161Z,100.00
2023-12-22T14:44:22.863Z,100.00
2023-12-22T14:47:24.767Z,100.00
2023-12-22T14:50:26.526Z,100.00
2023-12-22T14:53:29.412Z,100.00
2023-12-22T14:56:31.091Z,100.00
2023-12-22T14:59:32.812Z,100.00
2023-12-22T15:02:34.780Z,100.00
2023-12-22T15:05:37.674Z,100.00
2023-12-22T15:08:39.825Z,100.00
2023-12-22T15:11:46.000Z,100.00
2023-12-22T15:14:48.659Z,100.00
2023-12-22T15:17:50.640Z,100.00
2023-12-22T15:20:52.690Z,100.00
2023-12-22T15:23:54.572Z,100.00
2023-12-22T15:26:56.202Z,100.00
2023-12-22T15:29:57.820Z,100.00
2023-12-22T15:32:59.542Z,100.00
2023-12-22T15:36:01.239Z,100.00
2023-12-22T15:39:03.061Z,100.00
2023-12-22T15:42:04.957Z,100.00
2023-12-22T15:45:07.378Z,100.00
2023-12-22T15:48:09.138Z,100.00
2023-12-22T15:51:15.249Z,100.00
2023-12-22T15:54:18.524Z,100.00
2023-12-22T15:57:20.228Z,100.00
2023-12-22T16:00:22.155Z,100.00
2023-12-22T16:03:24.059Z,100.00
2023-12-22T16:06:25.861Z,100.00
2023-12-22T16:09:27.590Z,100.00
2023-12-22T16:12:29.234Z,100.00
2023-12-22T16:15:30.841Z,100.00
2023-12-22T16:18:32.494Z,100.00
2023-12-22T16:21:40.748Z,100.00
2023-12-22T16:24:42.673Z,100.00
2023-12-22T16:27:44.382Z,100.00
2023-12-22T16:30:47.079Z,100.00
2023-12-22T16:33:48.923Z,100.00
2023-12-22T16:36:50.733Z,100.00
2023-12-22T16:39:54.106Z,100.00
2023-12-22T16:42:55.793Z,100.00
2023-12-22T16:45:57.411Z,100.00
2023-12-22T16:48:59.124Z,100.00
2023-12-22T16:52:00.797Z,100.00
2023-12-22T16:55:02.968Z,100.00
2023-12-22T16:58:04.979Z,100.00
2023-12-22T17:01:21.797Z,100.00
2023-12-22T17:04:28.540Z,100.00
2023-12-22T17:07:33.998Z,100.00
2023-12-22T17:10:38.328Z,100.00
2023-12-22T17:13:40.052Z,100.00
2023-12-22T17:16:41.849Z,100.00
2023-12-22T17:19:43.651Z,100.00
2023-12-22T17:22:45.398Z,100.00
2023-12-22T17:25:53.673Z,100.00
2023-12-22T17:29:00.391Z,100.00
2023-12-22T17:32:08.230Z,100.00
2023-12-22T17:35:10.076Z,100.00
2023-12-22T17:38:11.769Z,100.00
2023-12-22T17:41:13.463Z,100.00
2023-12-22T17:44:15.241Z,100.00
2023-12-22T17:47:16.916Z,100.00
2023-12-22T17:50:19.605Z,100.00
2023-12-22T17:53:26.101Z,100.00
2023-12-22T17:56:27.812Z,100.00
2023-12-22T17:59:29.536Z,100.00
2023-12-22T18:02:31.156Z,100.00
2023-12-22T18:05:32.885Z,100.00
2023-12-22T18:08:34.567Z,100.00
2023-12-22T18:11:41.399Z,100.00
2023-12-22T18:14:43.403Z,100.00
2023-12-22T18:17:45.125Z,100.00
2023-12-22T18:20:46.809Z,100.00
2023-12-22T18:23:48.484Z,100.00
2023-12-22T18:26:50.201Z,100.00
2023-12-22T18:29:51.842Z,100.00
2023-12-22T18:32:53.564Z,100.00
2023-12-22T18:35:56.227Z,100.00
2023-12-22T18:38:59.590Z,100.00
2023-12-22T18:42:01.296Z,100.00
2023-12-22T18:45:03.017Z,100.00
2023-12-22T18:48:05.152Z,100.00
2023-12-22T18:51:06.957Z,100.00
2023-12-22T18:54:10.227Z,100.00
2023-12-22T18:57:11.917Z,100.00
2023-12-22T19:00:14.250Z,100.00
2023-12-22T19:03:16.233Z,100.00
2023-12-22T19:06:18.142Z,100.00
2023-12-22T19:09:19.882Z,100.00
2023-12-22T19:12:21.979Z,100.00
2023-12-22T19:15:25.278Z,100.00
2023-12-22T19:18:27.546Z,100.00
2023-12-22T19:21:29.389Z,100.00
2023-12-22T19:24:32.755Z,100.00
2023-12-22T19:27:36.138Z,100.00
2023-12-22T19:30:37.928Z,100.00
2023-12-22T19:33:41.422Z,100.00
2023-12-22T19:36:43.911Z,100.00
2023-12-22T19:39:46.676Z,100.00
2023-12-22T19:42:49.905Z,100.00
2023-12-22T19:45:51.825Z,100.00
2023-12-22T19:48:54.863Z,100.00
2023-12-22T19:51:57.635Z,100.00
2023-12-22T19:55:02.918Z,100.00
2023-12-22T19:58:05.327Z,100.00
2023-12-22T20:01:07.721Z,100.00
2023-12-22T20:04:09.879Z,100.00
2023-12-22T20:07:11.667Z,100.00
2023-12-22T20:10:13.765Z,100.00
2023-12-22T20:13:18.257Z,100.00
2023-12-22T20:16:21.407Z,100.00
2023-12-22T20:19:23.971Z,100.00
2023-12-22T20:22:26.637Z,100.00
2023-12-22T20:25:29.292Z,100.00
2023-12-22T20:28:31.444Z,100.00
2023-12-22T20:31:35.266Z,100.00
2023-12-22T20:34:37.025Z,100.00
2023-12-22T20:37:38.704Z,100.00
2023-12-22T20:40:40.767Z,100.00
2023-12-22T20:43:42.438Z,100.00
2023-12-22T20:46:44.170Z,100.00
2023-12-22T20:49:45.849Z,100.00
2023-12-22T20:52:51.905Z,100.00
2023-12-22T20:55:53.732Z,100.00
2023-12-22T20:58:56.951Z,100.00
2023-12-22T21:01:58.800Z,100.00
2023-12-22T21:05:00.801Z,100.00
2023-12-22T21:08:02.676Z,100.00
2023-12-22T21:11:04.802Z,100.00
2023-12-22T21:14:07.894Z,100.00
2023-12-22T21:17:09.922Z,100.00
2023-12-22T21:20:11.846Z,100.00
2023-12-22T21:23:15.830Z,100.00
2023-12-22T21:26:30.279Z,100.00
2023-12-22T21:29:31.964Z,100.00
2023-12-22T21:32:34.150Z,100.00
2023-12-22T21:35:36.313Z,100.00
2023-12-22T21:38:38.091Z,100.00
2023-12-22T21:41:39.710Z,100.00
2023-12-22T21:44:44.805Z,100.00
2023-12-22T21:47:46.923Z,100.00
2023-12-22T21:50:48.698Z,100.00
2023-12-22T21:53:50.330Z,100.00
2023-12-22T21:56:52.695Z,100.00
2023-12-22T21:59:54.337Z,100.00
2023-12-22T22:02:55.965Z,100.00
2023-12-22T22:05:57.602Z,100.00
2023-12-22T22:08:59.404Z,100.00
2023-12-22T22:12:01.396Z,100.00
2023-12-22T22:15:04.185Z,100.00
2023-12-22T22:18:06.056Z,100.00
2023-12-22T22:21:07.732Z,100.00
2023-12-22T22:24:09.369Z,100.00
2023-12-22T22:27:11.055Z,100.00
2023-12-22T22:30:12.837Z,100.00
2023-12-22T22:33:14.559Z,100.00
2023-12-22T22:36:16.943Z,100.00
2023-12-22T22:39:18.921Z,100.00
2023-12-22T22:42:20.588Z,100.00
2023-12-22T22:45:22.274Z,100.00
2023-12-22T22:48:24.020Z,100.00
2023-12-22T22:51:27.244Z,100.00
2023-12-22T22:54:29.164Z,100.00
2023-12-22T22:57:30.795Z,100.00
2023-12-22T23:00:33.703Z,100.00
2023-12-22T23:03:37.410Z,100.00
2023-12-22T23:06:39.363Z,100.00
2023-12-22T23:09:41.077Z,100.00
2023-12-22T23:12:42.765Z,100.00
2023-12-22T23:15:44.386Z,100.00
2023-12-22T23:18:46.493Z,100.00
2023-12-22T23:21:48.129Z,100.00
2023-12-22T23:24:49.844Z,100.00
2023-12-22T23:27:51.958Z,100.00
2023-12-22T23:30:54.720Z,100.00
2023-12-22T23:33:56.400Z,100.00
2023-12-22T23:36:58.136Z,100.00
2023-12-22T23:39:59.819Z,100.00
2023-12-22T23:43:01.468Z,100.00
2023-12-22T23:46:04.047Z,100.00
2023-12-22T23:49:05.727Z,100.00
2023-12-22T23:52:07.401Z,100.00
2023-12-22T23:55:09.226Z,100.00
2023-12-22T23:58:10.871Z,100.00
